• Join FlightAware (Why Join?)
  • Login
  • US Flag 
01:11PM EST


 

Airport Tracker/Info


-or-


 

Live Flight TrackerFlight Track Log ✈ N418PA ✈ 06-Jul-2013 ✈ KCHD - KIWA

Flight Track Log - Related Links

Times and Time Zones

All times are in EDT time to prevent confusion due to time zone crossing. See the N418PA flight status page for this flight to view local times or setup timezone preferences in your user account.

Time Position Orientation Groundspeed Altitude Reporting Facility
EDT Latitude Longitude Course Direction KTS MPH feet Rate Location/Type
06:17PM 33.2333 -111.8500 270° West 71 82 2,400  Level Phoenix TRACON
06:17PM 33.2333 -111.8667 270° West 77 89 2,700 524 Climbing Phoenix TRACON
06:18PM 33.2167 -111.8833 220° Southwest 79 91 3,300 496 Climbing Phoenix TRACON
06:19PM 33.2000 -111.8833 180° South 88 101 3,700 500 Climbing Phoenix TRACON
06:20PM 33.1833 -111.8667 140° Southeast 84 97 4,300 110 Climbing Phoenix TRACON
06:26PM 33.1620 -111.6820 140° Southeast 103 119 4,400 17 Climbing FlightAware
06:26PM 33.1610 -111.6700 96° East 103 119 4,400 107 Level FlightAware
06:27PM 33.1620 -111.6510 86° East 101 116 4,500 107 Climbing FlightAware
06:27PM 33.1620 -111.6360 90° East 110 127 4,500  Level FlightAware
06:28PM 33.1610 -111.6170 94° East 120 138 4,500  Level FlightAware
06:28PM 33.1600 -111.6030 95° East 119 137 4,500  Level FlightAware
06:29PM 33.1600 -111.5710 90° East 104 120 4,500  Level FlightAware
06:29PM 33.1600 -111.5510 90° East 102 117 4,500  Level FlightAware
06:30PM 33.1710 -111.5260 62° Northeast 103 119 4,500 -283 Level FlightAware
06:31PM 33.1920 -111.5310 349° North 104 120 4,000 -500 Descending FlightAware
06:32PM 33.2040 -111.5370 337° Northwest 100 115 3,900 -327 Descending FlightAware
06:32PM 33.2150 -111.5460 326° Northwest 101 116 3,700 -484 Descending FlightAware
06:33PM 33.2230 -111.5570 311° West 87 100 3,400 -526 Descending FlightAware
06:33PM 33.2320 -111.5660 320° Northwest 94 108 3,200 -471 Descending FlightAware
06:34PM 33.2400 -111.5760 314° West 93 107 3,000 -321 Descending FlightAware
06:34PM 33.2490 -111.5860 317° Northwest 87 100 2,900 -400 Descending FlightAware
06:35PM 33.2580 -111.5960 317° Northwest 91 105 2,600 -476 Descending FlightAware
06:35PM 33.2680 -111.6070 317° Northwest 85 98 2,400 -400 Descending FlightAware
06:36PM 33.2750 -111.6160 313° West 90 104 2,200 -419 Descending FlightAware
06:36PM 33.2810 -111.6220 320° Northwest 92 106 2,100 -214 Descending FlightAware
06:36PM 33.2910 -111.6360 311° West 96 110 2,000 -532 Descending FlightAware
06:37PM 33.3050 -111.6483 311° West 93 107 1,400 -923 Descending Albuquerque Center